Patton Village, California
Current Conditions -  °F | °C
As of 12:55 AM on Wednesday 22 Oct 2014 (Local Time) from KRTS Reporting Station
Clear Clear  
Wind Chill: 37°   Ceiling: Unl
Heat Index: 37°   Visibility: 10mi
Dew Point: 27°   Wind: 0mph
Humidity: 65%   Direction: NA
Pressure: 30.11"   Gusts: NA
Location:  40.3266°N, 120.122°W
Report Text: KRTS 220755Z AUTO 00000KT 10SM CLR 03/M03 A3011 RMK AO2
Loading
Personal Weather Stations






























Interactive Weather Map New forecast layout! Learn more

10-Day Weather Forecast

Advertisements
Track Severe Weather on mobile